Terminal Aerodrome Forecast
Issued by NWS

Home | Current Version | Previous Version | Text Only | Print | Product List | Glossary On
Versions: 1 2 3 4 5 6 7 8 9 10 11 12 13 14 15 16 17 18
000
FTUS45 KFGZ 181700
TAFPRC
TAF
KPRC 181737Z 1818/1918 VRB04KT P6SM SCT015 BKN050
      TEMPO 1818/1819 BKN008
     FM190100 19004KT P6SM SCT050
     FM191500 VRB05KT P6SM SKC=

USA.gov is the U.S. government's official web portal to all federal, state and local government web resources and services.